createdAt,value
2018-02-05T00:01:14.420Z,22.83
2018-02-05T00:03:42.821Z,24.00
2018-02-05T00:06:11.287Z,39.93
2018-02-05T00:08:39.746Z,34.90
2018-02-05T00:11:08.173Z,30.50
2018-02-05T00:13:36.575Z,27.07
2018-02-05T00:16:05.054Z,23.93
2018-02-05T00:18:33.486Z,25.63
2018-02-05T00:21:01.890Z,26.80
2018-02-05T00:23:30.422Z,26.03
2018-02-05T00:25:58.837Z,27.93
2018-02-05T00:28:27.246Z,28.00
2018-02-05T00:30:55.684Z,28.37
2018-02-05T00:33:24.088Z,25.47
2018-02-05T00:35:52.500Z,24.87
2018-02-05T00:38:20.959Z,23.30
2018-02-05T00:40:49.363Z,29.27
2018-02-05T00:43:17.804Z,26.60
2018-02-05T00:45:46.264Z,27.67
2018-02-05T00:48:14.696Z,23.50
2018-02-05T00:50:43.131Z,31.47
2018-02-05T00:53:11.623Z,39.53
2018-02-05T00:55:40.050Z,32.03
2018-02-05T00:58:08.453Z,36.30
2018-02-05T01:00:36.911Z,34.60
2018-02-05T01:03:05.324Z,37.53
2018-02-05T01:05:33.756Z,37.63
2018-02-05T01:08:02.194Z,42.07
2018-02-05T01:10:30.580Z,39.97
2018-02-05T01:12:58.992Z,39.77
2018-02-05T01:15:27.460Z,42.23
2018-02-05T01:17:55.858Z,51.53
2018-02-05T01:20:24.267Z,50.00
2018-02-05T01:22:52.956Z,46.77
2018-02-05T01:25:21.419Z,48.40
2018-02-05T01:27:49.831Z,46.13
2018-02-05T01:30:18.278Z,58.97
2018-02-05T01:32:46.693Z,44.03
2018-02-05T01:35:15.100Z,58.80
2018-02-05T01:37:43.553Z,53.00
2018-02-05T01:40:11.974Z,45.80
2018-02-05T01:42:40.373Z,58.87
2018-02-05T01:45:08.853Z,47.77
2018-02-05T01:47:37.261Z,59.33
2018-02-05T01:50:05.667Z,54.57
2018-02-05T01:52:34.145Z,58.73
2018-02-05T01:55:02.545Z,51.67
2018-02-05T01:57:30.959Z,49.17
2018-02-05T01:59:59.470Z,51.20
2018-02-05T02:02:27.874Z,55.67
2018-02-05T02:04:56.278Z,110.60
2018-02-05T02:07:24.719Z,61.27
2018-02-05T02:09:53.118Z,41.43
2018-02-05T02:12:21.517Z,92.23
2018-02-05T02:14:49.983Z,41.37
2018-02-05T02:17:18.474Z,63.27
2018-02-05T02:19:46.940Z,55.47
2018-02-05T02:22:15.437Z,65.30
2018-02-05T02:24:43.857Z,50.13
2018-02-05T02:27:12.261Z,43.60
2018-02-05T02:29:40.760Z,51.70
2018-02-05T02:32:09.187Z,46.83
2018-02-05T02:34:37.620Z,44.60
2018-02-05T02:37:06.095Z,41.07
2018-02-05T02:39:34.511Z,53.27
2018-02-05T02:42:02.929Z,48.63
2018-02-05T02:44:31.380Z,62.93
2018-02-05T02:46:59.826Z,66.80
2018-02-05T02:49:28.240Z,46.77
2018-02-05T02:51:56.685Z,63.37
2018-02-05T02:54:25.082Z,50.50
2018-02-05T02:56:53.517Z,87.10
2018-02-05T02:59:21.969Z,78.03
2018-02-05T03:01:50.379Z,66.10
2018-02-05T03:04:18.808Z,72.77
2018-02-05T03:06:47.280Z,66.10
2018-02-05T03:09:15.704Z,70.30
2018-02-05T03:11:44.121Z,64.67
2018-02-05T03:14:12.741Z,58.87
2018-02-05T03:16:41.170Z,59.87
2018-02-05T03:19:09.586Z,64.77
2018-02-05T03:21:38.077Z,57.03
2018-02-05T03:24:06.490Z,59.27
2018-02-05T03:26:34.909Z,53.43
2018-02-05T03:29:03.392Z,62.40
2018-02-05T03:31:31.807Z,51.57
2018-02-05T03:34:00.213Z,63.00
2018-02-05T03:36:28.653Z,55.53
2018-02-05T03:38:57.067Z,57.87
2018-02-05T03:41:25.521Z,55.53
2018-02-05T03:43:53.978Z,56.67
2018-02-05T03:46:22.406Z,51.20
2018-02-05T03:48:50.811Z,54.93
2018-02-05T03:51:19.284Z,53.43
2018-02-05T03:53:47.689Z,49.03
2018-02-05T03:56:16.102Z,49.07
2018-02-05T03:58:44.558Z,51.97
2018-02-05T04:01:12.953Z,48.10
2018-02-05T04:03:41.357Z,48.30
2018-02-05T04:06:09.837Z,50.63
2018-02-05T04:08:38.274Z,49.87
2018-02-05T04:11:06.699Z,51.93
2018-02-05T04:13:35.200Z,47.73
2018-02-05T04:16:03.612Z,45.37
2018-02-05T04:18:32.050Z,47.57
2018-02-05T04:21:00.532Z,47.50
2018-02-05T04:23:28.961Z,48.63
2018-02-05T04:25:57.372Z,40.97
2018-02-05T04:28:26.087Z,51.43
2018-02-05T04:30:54.501Z,56.90
2018-02-05T04:33:22.940Z,52.40
2018-02-05T04:35:51.405Z,53.10
2018-02-05T04:38:19.835Z,55.97
2018-02-05T04:40:48.242Z,65.70
2018-02-05T04:43:16.703Z,54.43
2018-02-05T04:45:45.120Z,55.33
2018-02-05T04:48:13.538Z,60.37
2018-02-05T04:50:42.001Z,58.73
2018-02-05T04:53:10.403Z,59.67
2018-02-05T04:55:38.807Z,57.80
2018-02-05T04:58:07.291Z,55.63
2018-02-05T05:00:35.716Z,51.27
2018-02-05T05:03:04.131Z,53.37
2018-02-05T05:05:32.593Z,57.60
2018-02-05T05:08:01.005Z,53.10
2018-02-05T05:10:29.433Z,52.63
2018-02-05T05:12:57.905Z,52.97
2018-02-05T05:15:26.326Z,49.37
2018-02-05T05:17:54.735Z,49.43
2018-02-05T05:20:23.216Z,45.03
2018-02-05T05:22:51.645Z,48.17
2018-02-05T05:25:20.077Z,50.00
2018-02-05T05:27:48.536Z,46.50
2018-02-05T05:30:16.933Z,53.57
2018-02-05T05:32:45.321Z,45.20
2018-02-05T05:35:13.793Z,48.17
2018-02-05T05:37:42.215Z,47.27
2018-02-05T05:40:10.641Z,50.37
2018-02-05T05:42:39.105Z,45.70
2018-02-05T05:45:07.540Z,46.20
2018-02-05T05:47:35.945Z,46.40
2018-02-05T05:50:04.404Z,49.77
2018-02-05T05:52:32.808Z,40.37
2018-02-05T05:55:01.226Z,39.07
2018-02-05T05:57:29.673Z,45.13
2018-02-05T05:59:58.100Z,46.27
2018-02-05T06:02:26.537Z,46.40
2018-02-05T06:04:54.980Z,45.97
2018-02-05T06:07:23.404Z,44.90
2018-02-05T06:09:51.821Z,44.07
2018-02-05T06:12:20.306Z,45.17
2018-02-05T06:14:48.724Z,43.53
2018-02-05T06:17:17.130Z,45.67
2018-02-05T06:19:45.576Z,43.17
2018-02-05T06:22:13.981Z,45.10
2018-02-05T06:24:42.386Z,47.63
2018-02-05T06:27:10.849Z,45.93
2018-02-05T06:29:39.266Z,39.77
2018-02-05T06:32:07.670Z,40.80
2018-02-05T06:34:36.142Z,41.93
2018-02-05T06:37:04.553Z,40.30
2018-02-05T06:39:32.962Z,43.13
2018-02-05T06:42:01.398Z,39.93
2018-02-05T06:44:29.793Z,41.57
2018-02-05T06:46:58.210Z,44.53
2018-02-05T06:49:26.684Z,44.57
2018-02-05T06:52:06.802Z,45.43
2018-02-05T06:54:47.134Z,42.93
2018-02-05T06:57:15.532Z,43.87
2018-02-05T06:59:43.938Z,37.10
2018-02-05T07:02:12.421Z,39.93
2018-02-05T07:04:40.820Z,45.37
2018-02-05T07:07:09.241Z,42.70
2018-02-05T07:09:37.689Z,39.93
2018-02-05T07:12:06.095Z,44.23
2018-02-05T07:14:34.493Z,45.33
2018-02-05T07:17:02.929Z,41.60
2018-02-05T07:19:31.322Z,48.17
2018-02-05T07:21:59.744Z,43.30
2018-02-05T07:24:28.179Z,45.80
2018-02-05T07:26:56.569Z,44.90
2018-02-05T07:29:24.978Z,45.60
2018-02-05T07:31:53.460Z,41.93
2018-02-05T07:34:21.872Z,43.03
2018-02-05T07:36:50.275Z,44.67
2018-02-05T07:39:18.738Z,43.47
2018-02-05T07:41:47.129Z,40.43
2018-02-05T07:44:15.528Z,45.23
2018-02-05T07:46:43.965Z,47.00
2018-02-05T07:49:12.384Z,40.33
2018-02-05T07:51:40.774Z,46.53
2018-02-05T07:54:09.238Z,45.27
2018-02-05T07:56:37.660Z,42.90
2018-02-05T07:59:06.062Z,45.30
2018-02-05T08:01:34.497Z,47.47
2018-02-05T08:04:02.908Z,44.13
2018-02-05T08:06:31.321Z,45.30
2018-02-05T08:08:59.762Z,45.93
2018-02-05T08:11:28.171Z,44.53
2018-02-05T08:13:56.580Z,42.53
2018-02-05T08:16:25.042Z,45.43
2018-02-05T08:18:53.461Z,42.20
2018-02-05T08:21:21.849Z,43.87
2018-02-05T08:23:50.295Z,42.53
2018-02-05T08:26:18.705Z,44.40
2018-02-05T08:28:47.106Z,44.73
2018-02-05T08:31:15.572Z,45.00
2018-02-05T08:33:43.985Z,42.40
2018-02-05T08:36:12.381Z,43.60
2018-02-05T08:38:40.825Z,41.13
2018-02-05T08:41:09.436Z,45.70
2018-02-05T08:43:37.857Z,43.30
2018-02-05T08:46:06.385Z,43.57
2018-02-05T08:48:34.779Z,41.13
2018-02-05T08:51:03.175Z,43.33
2018-02-05T08:53:31.638Z,46.77
2018-02-05T08:56:00.033Z,45.67
2018-02-05T08:58:28.430Z,46.07
2018-02-05T09:00:56.897Z,39.83
2018-02-05T09:03:25.297Z,43.03
2018-02-05T09:05:53.714Z,44.57
2018-02-05T09:08:22.166Z,41.90
2018-02-05T09:10:50.567Z,41.57
2018-02-05T09:13:18.958Z,39.93
2018-02-05T09:15:47.420Z,37.83
2018-02-05T09:18:15.819Z,42.00
2018-02-05T09:20:44.232Z,40.20
2018-02-05T09:23:12.713Z,39.07
2018-02-05T09:25:41.133Z,41.83
2018-02-05T09:28:09.554Z,41.50
2018-02-05T09:30:37.992Z,35.07
2018-02-05T09:33:06.417Z,38.53
2018-02-05T09:35:34.825Z,36.10
2018-02-05T09:38:03.278Z,37.27
2018-02-05T09:40:31.687Z,35.47
2018-02-05T09:43:00.298Z,35.63
2018-02-05T09:45:28.750Z,37.80
2018-02-05T09:47:57.159Z,38.90
2018-02-05T09:50:25.547Z,36.47
2018-02-05T09:52:54.008Z,33.97
2018-02-05T09:55:22.431Z,32.63
2018-02-05T09:57:50.820Z,34.17
2018-02-05T10:00:19.270Z,30.93
2018-02-05T10:02:47.690Z,31.50
2018-02-05T10:05:16.110Z,27.73
2018-02-05T10:07:44.573Z,27.33
2018-02-05T10:10:12.971Z,28.97
2018-02-05T10:12:41.392Z,30.43
2018-02-05T10:15:09.849Z,30.40
2018-02-05T10:17:38.269Z,31.00
2018-02-05T10:20:06.665Z,28.23
2018-02-05T10:22:35.442Z,29.43
2018-02-05T10:25:03.870Z,26.80
2018-02-05T10:27:32.277Z,28.73
2018-02-05T10:30:00.753Z,27.20
2018-02-05T10:32:29.148Z,30.97
2018-02-05T10:34:57.629Z,24.47
2018-02-05T10:37:26.267Z,29.47
2018-02-05T10:39:54.729Z,28.60
2018-02-05T10:42:23.136Z,26.83
2018-02-05T10:44:51.596Z,30.17
2018-02-05T10:47:20.013Z,28.33
2018-02-05T10:49:48.428Z,25.40
2018-02-05T10:52:16.893Z,27.87
2018-02-05T10:54:46.208Z,25.57
2018-02-05T10:57:14.602Z,24.60
2018-02-05T10:59:43.076Z,22.17
2018-02-05T11:02:11.521Z,27.63
2018-02-05T11:04:39.933Z,27.97
2018-02-05T11:07:08.369Z,26.87
2018-02-05T11:09:36.780Z,26.83
2018-02-05T11:12:05.201Z,23.97
2018-02-05T11:14:33.661Z,25.17
2018-02-05T11:17:02.060Z,21.90
2018-02-05T11:19:30.468Z,24.03
2018-02-05T11:21:58.927Z,24.70
2018-02-05T11:24:27.353Z,24.57
2018-02-05T11:26:55.746Z,25.67
2018-02-05T11:29:24.272Z,28.13
2018-02-05T11:31:52.677Z,27.57
2018-02-05T11:34:21.061Z,27.93
2018-02-05T11:36:49.499Z,28.90
2018-02-05T11:39:17.913Z,24.83
2018-02-05T11:41:46.328Z,29.63
2018-02-05T11:44:14.776Z,27.37
2018-02-05T11:46:43.177Z,26.77
2018-02-05T11:49:11.588Z,28.63
2018-02-05T11:51:40.041Z,27.60
2018-02-05T11:54:08.456Z,28.20
2018-02-05T11:56:36.864Z,24.17
2018-02-05T11:59:05.320Z,27.80
2018-02-05T12:01:33.732Z,27.97
2018-02-05T12:04:02.128Z,25.00
2018-02-05T12:06:30.566Z,27.73
2018-02-05T12:08:59.221Z,26.60
2018-02-05T12:11:27.633Z,27.03
2018-02-05T12:13:56.110Z,26.43
2018-02-05T12:16:24.522Z,27.10
2018-02-05T12:18:52.909Z,25.53
2018-02-05T12:21:21.377Z,26.53
2018-02-05T12:23:49.797Z,29.13
2018-02-05T12:26:18.195Z,27.60
2018-02-05T12:28:46.659Z,24.20
2018-02-05T12:31:15.078Z,26.60
2018-02-05T12:33:43.485Z,31.20
2018-02-05T12:36:11.930Z,26.97
2018-02-05T12:38:40.317Z,27.47
2018-02-05T12:41:08.735Z,24.47
2018-02-05T12:43:37.169Z,25.50
2018-02-05T12:46:05.569Z,24.33
2018-02-05T12:48:33.969Z,22.50
2018-02-05T12:51:02.409Z,22.47
2018-02-05T12:53:30.827Z,25.10
2018-02-05T12:55:59.338Z,22.80
2018-02-05T12:58:27.812Z,21.57
2018-02-05T13:00:58.209Z,25.27
2018-02-05T13:03:40.548Z,24.27
2018-02-05T13:06:11.856Z,23.70
2018-02-05T13:08:40.328Z,22.67
2018-02-05T13:11:08.718Z,23.93
2018-02-05T13:13:37.125Z,28.23
2018-02-05T13:16:05.570Z,25.13
2018-02-05T13:18:33.992Z,26.50
2018-02-05T13:21:02.377Z,27.60
2018-02-05T13:23:30.818Z,23.77
2018-02-05T13:25:59.225Z,28.27
2018-02-05T13:28:27.649Z,21.23
2018-02-05T13:30:56.111Z,29.00
2018-02-05T13:33:24.517Z,26.33
2018-02-05T13:35:52.916Z,25.50
2018-02-05T13:38:21.362Z,26.57
2018-02-05T13:40:49.772Z,28.63
2018-02-05T13:43:18.178Z,22.70
2018-02-05T13:45:46.620Z,24.37
2018-02-05T13:48:15.046Z,25.40
2018-02-05T13:50:43.482Z,23.87
2018-02-05T13:53:12.132Z,27.47
2018-02-05T13:55:40.555Z,26.30
2018-02-05T13:58:08.969Z,28.23
2018-02-05T14:00:37.424Z,28.33
2018-02-05T14:03:05.832Z,27.77
2018-02-05T14:05:34.304Z,28.53
2018-02-05T14:08:02.737Z,29.60
2018-02-05T14:10:31.148Z,27.80
2018-02-05T14:12:59.577Z,30.37
2018-02-05T14:15:28.038Z,25.30
2018-02-05T14:17:56.434Z,27.13
2018-02-05T14:20:24.847Z,25.27
2018-02-05T14:22:53.294Z,29.10
2018-02-05T14:25:21.699Z,24.33
2018-02-05T14:27:50.086Z,23.93
2018-02-05T14:30:18.557Z,23.70
2018-02-05T14:32:46.950Z,23.83
2018-02-05T14:35:15.365Z,25.20
2018-02-05T14:37:43.834Z,23.57
2018-02-05T14:40:12.257Z,24.03
2018-02-05T14:42:40.669Z,27.83
2018-02-05T14:45:09.124Z,28.07
2018-02-05T14:47:37.552Z,25.50
2018-02-05T14:50:05.961Z,26.27
2018-02-05T14:52:34.402Z,21.90
2018-02-05T14:55:02.793Z,23.67
2018-02-05T14:57:31.189Z,26.03
2018-02-05T14:59:59.652Z,22.03
2018-02-05T15:02:28.052Z,23.77
2018-02-05T15:04:56.451Z,29.30
2018-02-05T15:07:24.895Z,32.00
2018-02-05T15:09:53.310Z,25.33
2018-02-05T15:12:21.710Z,26.43
2018-02-05T15:14:50.146Z,36.20
2018-02-05T15:17:18.550Z,30.13
2018-02-05T15:19:46.950Z,36.37
2018-02-05T15:22:15.391Z,36.23
2018-02-05T15:24:43.797Z,31.87
2018-02-05T15:27:12.217Z,32.40
2018-02-05T15:29:40.705Z,43.57
2018-02-05T15:32:09.105Z,42.67
2018-02-05T15:34:37.513Z,27.63
2018-02-05T15:37:05.972Z,36.30
2018-02-05T15:39:34.383Z,30.27
2018-02-05T15:42:02.805Z,28.00
2018-02-05T15:44:31.420Z,26.00
2018-02-05T15:46:59.831Z,26.17
2018-02-05T15:49:28.248Z,26.47
2018-02-05T15:51:56.690Z,26.33
2018-02-05T15:54:25.083Z,27.90
2018-02-05T15:56:53.520Z,25.80
2018-02-05T15:59:22.006Z,25.33
2018-02-05T16:01:50.403Z,25.43
2018-02-05T16:04:18.823Z,25.33
2018-02-05T16:06:47.257Z,31.57
2018-02-05T16:09:15.655Z,27.70
2018-02-05T16:11:44.061Z,26.83
2018-02-05T16:14:12.525Z,27.53
2018-02-05T16:16:40.943Z,28.87
2018-02-05T16:19:09.345Z,26.00
2018-02-05T16:21:37.796Z,28.60
2018-02-05T16:24:06.213Z,33.47
2018-02-05T16:26:34.624Z,33.43
2018-02-05T16:29:03.058Z,34.87
2018-02-05T16:31:31.449Z,32.27
2018-02-05T16:33:59.835Z,29.73
2018-02-05T16:36:28.278Z,33.50
2018-02-05T16:38:56.688Z,29.50
2018-02-05T16:41:25.080Z,33.30
2018-02-05T16:43:53.514Z,32.73
2018-02-05T16:46:21.918Z,33.27
2018-02-05T16:48:50.389Z,36.30
2018-02-05T16:51:18.833Z,34.83
2018-02-05T16:53:47.233Z,36.57
2018-02-05T16:56:15.626Z,38.67
2018-02-05T16:58:44.097Z,33.07
2018-02-05T17:01:12.505Z,43.80
2018-02-05T17:03:40.917Z,35.40
2018-02-05T17:06:09.372Z,37.53
2018-02-05T17:08:37.793Z,33.13
2018-02-05T17:11:06.177Z,35.13
2018-02-05T17:13:34.644Z,36.37
2018-02-05T17:16:03.057Z,37.60
2018-02-05T17:18:31.445Z,36.40
2018-02-05T17:20:59.907Z,35.07
2018-02-05T17:23:28.318Z,40.10
2018-02-05T17:25:56.724Z,42.80
2018-02-05T17:28:25.180Z,38.50
2018-02-05T17:30:53.589Z,42.43
2018-02-05T17:33:21.981Z,40.87
2018-02-05T17:35:50.412Z,37.67
2018-02-05T17:38:18.830Z,34.47
2018-02-05T17:40:47.251Z,34.83
2018-02-05T17:43:15.686Z,34.60
2018-02-05T17:45:44.103Z,35.23
2018-02-05T17:48:12.491Z,34.37
2018-02-05T17:50:40.953Z,42.83
2018-02-05T17:53:09.394Z,37.80
2018-02-05T17:55:37.797Z,39.33
2018-02-05T17:58:06.326Z,36.80
2018-02-05T18:00:34.837Z,34.03
2018-02-05T18:03:03.277Z,34.37
2018-02-05T18:05:31.730Z,34.60
2018-02-05T18:08:00.124Z,36.50
2018-02-05T18:10:28.523Z,31.50
2018-02-05T18:12:56.953Z,34.87
2018-02-05T18:15:25.345Z,32.83
2018-02-05T18:17:53.741Z,32.80
2018-02-05T18:20:22.191Z,32.37
2018-02-05T18:22:50.605Z,34.47
2018-02-05T18:25:19.009Z,35.40
2018-02-05T18:27:47.461Z,34.83
2018-02-05T18:30:15.876Z,32.63
2018-02-05T18:32:44.269Z,50.83
2018-02-05T18:35:13.313Z,41.33
2018-02-05T18:37:41.713Z,35.83
2018-02-05T18:40:10.190Z,36.77
2018-02-05T18:42:38.626Z,34.33
2018-02-05T18:45:07.026Z,33.23
2018-02-05T18:47:35.425Z,36.63
2018-02-05T18:50:03.911Z,33.77
2018-02-05T18:52:32.353Z,35.93
2018-02-05T18:55:00.770Z,30.13
2018-02-05T18:57:29.275Z,27.03
2018-02-05T18:59:57.711Z,25.53
2018-02-05T19:02:26.120Z,26.03
2018-02-05T19:04:54.693Z,26.13
2018-02-05T19:07:23.087Z,28.53
2018-02-05T19:09:51.483Z,28.03
2018-02-05T19:12:19.925Z,24.50
2018-02-05T19:14:48.317Z,25.20
2018-02-05T19:17:16.731Z,26.53
2018-02-05T19:19:45.185Z,27.20
2018-02-05T19:22:13.606Z,26.60
2018-02-05T19:24:42.013Z,23.93
2018-02-05T19:27:10.465Z,26.43
2018-02-05T19:29:38.852Z,28.93
2018-02-05T19:32:07.250Z,25.03
2018-02-05T19:34:35.712Z,20.10
2018-02-05T19:37:04.134Z,23.77
2018-02-05T19:39:32.544Z,19.53
2018-02-05T19:42:01.000Z,23.33
2018-02-05T19:44:29.452Z,24.57
2018-02-05T19:46:57.861Z,21.90
2018-02-05T19:49:26.293Z,25.20
2018-02-05T19:51:54.766Z,32.20
2018-02-05T19:54:23.161Z,26.03
2018-02-05T19:56:51.597Z,24.00
2018-02-05T19:59:19.979Z,21.07
2018-02-05T20:01:48.367Z,27.00
2018-02-05T20:04:16.816Z,34.27
2018-02-05T20:06:45.216Z,21.17
2018-02-05T20:09:13.598Z,13.27
2018-02-05T20:11:42.074Z,14.23
2018-02-05T20:14:10.457Z,15.07
2018-02-05T20:16:38.868Z,16.17
2018-02-05T20:19:07.305Z,16.20
2018-02-05T20:21:35.706Z,15.70
2018-02-05T20:24:04.116Z,15.00
2018-02-05T20:26:32.558Z,19.57
2018-02-05T20:29:00.949Z,24.17
2018-02-05T20:31:29.354Z,15.93
2018-02-05T20:33:57.940Z,21.10
2018-02-05T20:36:26.348Z,16.33
2018-02-05T20:38:54.757Z,17.97
2018-02-05T20:41:23.212Z,21.13
2018-02-05T20:43:51.606Z,19.00
2018-02-05T20:46:20.013Z,17.27
2018-02-05T20:48:48.460Z,17.40
2018-02-05T20:51:16.878Z,17.77
2018-02-05T20:53:45.292Z,18.90
2018-02-05T20:56:13.772Z,16.57
2018-02-05T20:58:42.207Z,18.17
2018-02-05T21:01:10.627Z,27.73
2018-02-05T21:03:39.072Z,20.13
2018-02-05T21:06:07.464Z,18.77
2018-02-05T21:08:35.870Z,20.60
2018-02-05T21:11:04.317Z,17.57
2018-02-05T21:13:32.710Z,17.60
2018-02-05T21:16:01.116Z,17.33
2018-02-05T21:18:29.548Z,20.23
2018-02-05T21:20:57.961Z,17.97
2018-02-05T21:23:26.348Z,16.53
2018-02-05T21:25:54.828Z,15.97
2018-02-05T21:28:23.221Z,15.77
2018-02-05T21:30:51.624Z,15.43
2018-02-05T21:33:20.097Z,18.47
2018-02-05T21:35:48.484Z,14.47
2018-02-05T21:38:16.898Z,17.53
2018-02-05T21:40:45.345Z,14.80
2018-02-05T21:43:13.762Z,15.20
2018-02-05T21:45:42.166Z,15.07
2018-02-05T21:48:10.625Z,14.73
2018-02-05T21:50:39.013Z,13.70
2018-02-05T21:53:07.401Z,14.37
2018-02-05T21:55:35.849Z,13.93
2018-02-05T21:58:04.265Z,15.57
2018-02-05T22:00:32.677Z,13.60
2018-02-05T22:03:01.133Z,14.93
2018-02-05T22:05:29.520Z,15.03
2018-02-05T22:07:57.959Z,18.13
2018-02-05T22:10:26.404Z,14.27
2018-02-05T22:12:54.819Z,16.57
2018-02-05T22:15:23.241Z,15.53
2018-02-05T22:17:51.681Z,17.37
2018-02-05T22:20:20.086Z,14.17
2018-02-05T22:22:48.485Z,15.57
2018-02-05T22:25:16.941Z,13.20
2018-02-05T22:27:45.351Z,13.57
2018-02-05T22:30:13.768Z,10.53
2018-02-05T22:32:42.916Z,12.83
2018-02-05T22:35:11.342Z,11.23
2018-02-05T22:37:39.743Z,11.83
2018-02-05T22:40:08.188Z,12.10
2018-02-05T22:42:36.600Z,12.13
2018-02-05T22:45:05.013Z,13.10
2018-02-05T22:47:33.461Z,9.23
2018-02-05T22:50:01.866Z,11.80
2018-02-05T22:52:30.266Z,10.40
2018-02-05T22:54:58.713Z,11.93
2018-02-05T22:57:27.116Z,8.70
2018-02-05T22:59:55.557Z,10.53
2018-02-05T23:02:23.981Z,8.13
2018-02-05T23:04:52.392Z,29.70
2018-02-05T23:07:20.781Z,14.37
2018-02-05T23:09:49.228Z,14.60
2018-02-05T23:12:17.621Z,10.77
2018-02-05T23:14:46.034Z,13.50
2018-02-05T23:17:14.489Z,15.53
2018-02-05T23:19:42.893Z,12.77
2018-02-05T23:22:11.297Z,9.33
2018-02-05T23:24:39.741Z,11.33
2018-02-05T23:27:08.133Z,10.73
2018-02-05T23:29:36.518Z,9.77
2018-02-05T23:32:04.938Z,8.93
2018-02-05T23:34:33.318Z,9.30
2018-02-05T23:37:01.713Z,11.20
2018-02-05T23:39:30.346Z,13.43
2018-02-05T23:41:58.728Z,12.70
2018-02-05T23:44:27.132Z,13.33
2018-02-05T23:46:55.597Z,12.77
2018-02-05T23:49:23.989Z,10.20
2018-02-05T23:51:52.393Z,12.00
2018-02-05T23:54:20.821Z,11.73
2018-02-05T23:56:49.208Z,12.93
2018-02-05T23:59:17.592Z,8.97
